createdAt,value
2019-04-04T00:01:38.465Z,5.20
2019-04-04T00:04:08.409Z,5.10
2019-04-04T00:06:38.222Z,4.83
2019-04-04T00:09:10.501Z,4.63
2019-04-04T00:11:40.408Z,5.00
2019-04-04T00:14:12.646Z,4.77
2019-04-04T00:16:41.878Z,4.67
2019-04-04T00:19:11.820Z,5.63
2019-04-04T00:21:41.708Z,5.03
2019-04-04T00:24:11.630Z,6.50
2019-04-04T00:26:41.906Z,5.23
2019-04-04T00:29:12.503Z,4.70
2019-04-04T00:31:42.419Z,5.07
2019-04-04T00:34:13.661Z,6.83
2019-04-04T00:36:43.780Z,5.17
2019-04-04T00:39:13.599Z,4.53
2019-04-04T00:41:44.930Z,4.40
2019-04-04T00:44:15.031Z,5.07
2019-04-04T00:46:44.931Z,6.57
2019-04-04T00:49:15.114Z,5.03
2019-04-04T00:51:45.242Z,4.50
2019-04-04T00:54:15.069Z,4.90
2019-04-04T00:56:44.921Z,4.67
2019-04-04T00:59:14.835Z,5.00
2019-04-04T01:01:44.745Z,4.83
2019-04-04T01:04:14.694Z,5.43
2019-04-04T01:06:44.961Z,5.13
2019-04-04T01:09:14.845Z,5.13
2019-04-04T01:11:44.738Z,4.93
2019-04-04T01:14:14.655Z,6.70
2019-04-04T01:16:44.589Z,4.97
2019-04-04T01:19:14.420Z,5.00
2019-04-04T01:21:44.293Z,5.27
2019-04-04T01:24:14.201Z,5.27
2019-04-04T01:26:44.064Z,5.80
2019-04-04T01:29:14.056Z,4.63
2019-04-04T01:31:44.158Z,5.00
2019-04-04T01:34:15.530Z,4.40
2019-04-04T01:36:45.667Z,6.43
2019-04-04T01:39:15.569Z,6.17
2019-04-04T01:41:45.506Z,6.47
2019-04-04T01:44:15.375Z,6.30
2019-04-04T01:46:46.088Z,5.43
2019-04-04T01:49:16.443Z,5.00
2019-04-04T01:51:46.413Z,6.37
2019-04-04T01:54:16.656Z,6.20
2019-04-04T01:56:46.578Z,6.00
2019-04-04T01:59:16.425Z,7.97
2019-04-04T02:01:46.881Z,5.33
2019-04-04T02:04:17.370Z,6.10
2019-04-04T02:06:47.285Z,6.10
2019-04-04T02:09:17.193Z,5.73
2019-04-04T02:11:47.431Z,5.37
2019-04-04T02:14:19.517Z,6.70
2019-04-04T02:16:51.331Z,7.77
2019-04-04T02:19:20.780Z,6.40
2019-04-04T02:21:50.738Z,7.57
2019-04-04T02:24:20.625Z,5.93
2019-04-04T02:26:50.472Z,7.17
2019-04-04T02:29:20.353Z,8.73
2019-04-04T02:31:54.734Z,6.93
2019-04-04T02:34:24.633Z,5.27
2019-04-04T02:36:54.567Z,7.00
2019-04-04T02:39:24.659Z,7.23
2019-04-04T02:41:54.648Z,8.13
2019-04-04T02:44:24.582Z,6.93
2019-04-04T02:46:54.507Z,7.20
2019-04-04T02:49:27.901Z,7.57
2019-04-04T02:51:56.002Z,6.90
2019-04-04T02:54:25.947Z,10.30
2019-04-04T02:56:55.867Z,9.00
2019-04-04T02:59:25.840Z,7.97
2019-04-04T03:01:56.084Z,8.67
2019-04-04T03:04:26.046Z,9.00
2019-04-04T03:06:58.521Z,8.37
2019-04-04T03:09:27.809Z,8.43
2019-04-04T03:11:57.736Z,9.03
2019-04-04T03:14:27.670Z,8.67
2019-04-04T03:16:57.900Z,9.07
2019-04-04T03:19:27.917Z,9.03
2019-04-04T03:21:57.956Z,10.67
2019-04-04T03:24:27.926Z,9.93
2019-04-04T03:26:57.761Z,9.13
2019-04-04T03:29:27.726Z,11.17
2019-04-04T03:31:57.936Z,11.07
2019-04-04T03:34:27.886Z,10.57
2019-04-04T03:36:58.107Z,9.13
2019-04-04T03:39:28.046Z,10.40
2019-04-04T03:41:58.255Z,11.23
2019-04-04T03:44:28.223Z,11.57
2019-04-04T03:46:58.132Z,11.53
2019-04-04T03:49:28.076Z,11.63
2019-04-04T03:51:58.354Z,13.57
2019-04-04T03:54:28.699Z,14.70
2019-04-04T03:56:58.601Z,12.03
2019-04-04T03:59:29.622Z,9.57
2019-04-04T04:02:00.039Z,12.13
2019-04-04T04:04:30.025Z,12.77
2019-04-04T04:07:00.240Z,10.60
2019-04-04T04:09:30.182Z,13.27
2019-04-04T04:12:00.136Z,12.07
2019-04-04T04:14:30.360Z,13.00
2019-04-04T04:17:00.274Z,17.53
2019-04-04T04:19:31.395Z,16.93
2019-04-04T04:22:01.470Z,18.30
2019-04-04T04:24:31.406Z,18.13
2019-04-04T04:27:01.337Z,15.93
2019-04-04T04:29:31.262Z,17.07
2019-04-04T04:32:01.176Z,19.53
2019-04-04T04:34:33.940Z,15.10
2019-04-04T04:37:02.655Z,17.10
2019-04-04T04:39:40.851Z,23.90
2019-04-04T04:42:06.923Z,15.47
2019-04-04T04:44:39.232Z,13.90
2019-04-04T04:47:23.868Z,16.43
2019-04-04T04:49:55.274Z,17.37
2019-04-04T04:52:24.909Z,16.63
2019-04-04T04:54:55.536Z,15.97
2019-04-04T04:57:30.025Z,13.93
2019-04-04T04:59:57.258Z,18.73
2019-04-04T05:02:27.256Z,15.80
2019-04-04T05:04:57.243Z,27.63
2019-04-04T05:07:28.713Z,20.43
2019-04-04T05:09:58.617Z,26.67
2019-04-04T05:12:28.497Z,16.77
2019-04-04T05:15:00.991Z,17.13
2019-04-04T05:17:30.030Z,21.13
2019-04-04T05:19:59.946Z,18.73
2019-04-04T05:22:29.898Z,23.23
2019-04-04T05:25:07.813Z,19.13
2019-04-04T05:27:31.521Z,19.23
2019-04-04T05:30:01.432Z,19.57
2019-04-04T05:32:31.430Z,20.77
2019-04-04T05:35:01.990Z,21.30
2019-04-04T05:37:32.101Z,20.33
2019-04-04T05:40:02.039Z,22.17
2019-04-04T05:42:33.003Z,19.00
2019-04-04T05:45:03.518Z,21.90
2019-04-04T05:47:33.529Z,15.90
2019-04-04T05:50:03.819Z,14.80
2019-04-04T05:52:34.386Z,17.20
2019-04-04T05:55:04.562Z,16.33
2019-04-04T05:57:34.502Z,16.70
2019-04-04T06:00:05.082Z,18.37
2019-04-04T06:02:35.025Z,20.47
2019-04-04T06:05:05.101Z,17.37
2019-04-04T06:07:36.424Z,19.23
2019-04-04T06:10:07.715Z,20.57
2019-04-04T06:12:37.988Z,20.13
2019-04-04T06:15:08.502Z,20.27
2019-04-04T06:17:39.148Z,16.03
2019-04-04T06:20:10.925Z,18.70
2019-04-04T06:22:40.856Z,21.20
2019-04-04T06:25:10.705Z,16.03
2019-04-04T06:27:40.972Z,15.00
2019-04-04T06:30:11.717Z,14.47
2019-04-04T06:32:41.631Z,15.97
2019-04-04T06:35:13.288Z,17.13
2019-04-04T06:37:45.898Z,16.80
2019-04-04T06:40:15.212Z,10.77
2019-04-04T06:42:45.135Z,12.27
2019-04-04T06:45:15.930Z,13.70
2019-04-04T06:47:46.121Z,13.67
2019-04-04T06:50:16.034Z,17.53
2019-04-04T06:52:45.973Z,12.87
2019-04-04T06:55:15.846Z,12.57
2019-04-04T06:57:47.947Z,11.03
2019-04-04T07:00:19.350Z,13.57
2019-04-04T07:02:49.310Z,15.07
2019-04-04T07:05:19.244Z,12.33
2019-04-04T07:07:49.188Z,12.07
2019-04-04T07:10:21.844Z,12.17
2019-04-04T07:12:50.646Z,9.93
2019-04-04T07:15:20.867Z,10.87
2019-04-04T07:17:50.817Z,13.13
2019-04-04T07:20:20.746Z,11.87
2019-04-04T07:22:50.719Z,10.50
2019-04-04T07:25:20.631Z,12.23
2019-04-04T07:27:50.667Z,8.97
2019-04-04T07:30:20.598Z,9.87
2019-04-04T07:32:50.522Z,10.30
2019-04-04T07:35:21.165Z,10.67
2019-04-04T07:37:56.646Z,8.23
2019-04-04T07:40:23.067Z,10.97
2019-04-04T07:42:53.016Z,11.10
2019-04-04T07:45:25.836Z,15.50
2019-04-04T07:47:54.560Z,10.50
2019-04-04T07:50:26.258Z,9.87
2019-04-04T07:52:56.069Z,14.17
2019-04-04T07:55:26.299Z,12.50
2019-04-04T07:57:56.218Z,9.00
2019-04-04T08:00:26.890Z,10.20
2019-04-04T08:02:56.861Z,10.63
2019-04-04T08:05:26.827Z,11.97
2019-04-04T08:07:57.098Z,10.27
2019-04-04T08:10:27.050Z,10.27
2019-04-04T08:12:57.007Z,9.17
2019-04-04T08:15:27.062Z,10.53
2019-04-04T08:17:56.997Z,11.37
2019-04-04T08:20:26.980Z,10.73
2019-04-04T08:22:56.889Z,10.93
2019-04-04T08:25:26.846Z,13.27
2019-04-04T08:27:57.216Z,12.37
2019-04-04T08:30:27.777Z,13.03
2019-04-04T08:32:58.781Z,10.60
2019-04-04T08:35:28.730Z,10.03
2019-04-04T08:37:58.661Z,12.87
2019-04-04T08:40:28.613Z,12.20
2019-04-04T08:42:58.898Z,9.13
2019-04-04T08:45:28.874Z,8.93
2019-04-04T08:47:58.818Z,31.73
2019-04-04T08:50:28.781Z,8.27
2019-04-04T08:52:58.734Z,9.50
2019-04-04T08:55:28.686Z,10.10
2019-04-04T08:57:58.670Z,10.70
2019-04-04T09:00:28.614Z,12.80
2019-04-04T09:02:58.598Z,10.37
2019-04-04T09:05:28.542Z,15.80
2019-04-04T09:07:58.484Z,19.03
2019-04-04T09:10:28.452Z,10.57
2019-04-04T09:12:58.675Z,11.50
2019-04-04T09:15:28.647Z,11.73
2019-04-04T09:17:58.547Z,16.43
2019-04-04T09:20:28.425Z,10.47
2019-04-04T09:22:58.740Z,11.53
2019-04-04T09:25:28.683Z,12.33
2019-04-04T09:27:58.635Z,20.33
2019-04-04T09:30:28.879Z,16.73
2019-04-04T09:32:58.916Z,14.93
2019-04-04T09:35:28.868Z,14.60
2019-04-04T09:37:58.813Z,12.53
2019-04-04T09:40:30.096Z,16.90
2019-04-04T09:43:00.050Z,12.10
2019-04-04T09:45:29.991Z,15.07
2019-04-04T09:47:59.927Z,12.77
2019-04-04T09:50:29.881Z,15.80
2019-04-04T09:52:59.822Z,14.40
2019-04-04T09:55:29.806Z,16.00
2019-04-04T09:57:59.727Z,14.37
2019-04-04T10:00:29.743Z,13.20
2019-04-04T10:02:59.705Z,16.37
2019-04-04T10:05:29.729Z,13.80
2019-04-04T10:07:59.713Z,16.37
2019-04-04T10:10:29.655Z,15.60
2019-04-04T10:12:59.627Z,15.47
2019-04-04T10:15:29.535Z,12.57
2019-04-04T10:17:59.497Z,14.70
2019-04-04T10:20:29.439Z,14.23
2019-04-04T10:22:59.455Z,16.37
2019-04-04T10:25:29.431Z,18.83
2019-04-04T10:27:59.367Z,17.33
2019-04-04T10:30:29.298Z,14.33
2019-04-04T10:32:59.306Z,15.67
2019-04-04T10:35:29.229Z,17.13
2019-04-04T10:37:59.236Z,16.07
2019-04-04T10:40:29.439Z,17.93
2019-04-04T10:42:59.392Z,16.20
2019-04-04T10:45:29.330Z,18.10
2019-04-04T10:47:59.276Z,16.07
2019-04-04T10:50:29.257Z,19.17
2019-04-04T10:52:59.274Z,17.20
2019-04-04T10:55:29.248Z,18.87
2019-04-04T10:57:59.325Z,19.57
2019-04-04T11:00:29.265Z,19.50
2019-04-04T11:02:59.598Z,20.87
2019-04-04T11:05:29.548Z,24.13
2019-04-04T11:07:59.523Z,18.90
2019-04-04T11:10:29.453Z,20.53
2019-04-04T11:12:59.432Z,18.90
2019-04-04T11:15:29.365Z,22.87
2019-04-04T11:17:59.374Z,22.03
2019-04-04T11:20:29.321Z,21.30
2019-04-04T11:22:59.307Z,21.67
2019-04-04T11:25:29.544Z,21.40
2019-04-04T11:27:59.554Z,21.30
2019-04-04T11:30:29.401Z,19.20
2019-04-04T11:32:59.391Z,23.30
2019-04-04T11:35:29.314Z,20.23
2019-04-04T11:37:59.293Z,22.43
2019-04-04T11:40:29.171Z,20.00
2019-04-04T11:42:59.105Z,19.60
2019-04-04T11:45:28.953Z,17.70
2019-04-04T11:47:58.837Z,19.53
2019-04-04T11:50:28.673Z,16.13
2019-04-04T11:52:58.586Z,19.27
2019-04-04T11:55:28.510Z,19.17
2019-04-04T11:57:58.479Z,21.70
2019-04-04T12:00:34.363Z,15.80
2019-04-04T12:03:04.273Z,17.37
2019-04-04T12:05:34.534Z,18.57
2019-04-04T12:08:04.697Z,17.40
2019-04-04T12:10:34.597Z,18.43
2019-04-04T12:13:04.548Z,17.23
2019-04-04T12:15:34.467Z,18.80
2019-04-04T12:18:04.433Z,17.67
2019-04-04T12:20:34.326Z,19.30
2019-04-04T12:23:04.290Z,18.03
2019-04-04T12:25:34.718Z,15.57
2019-04-04T12:28:04.709Z,15.90
2019-04-04T12:30:34.675Z,15.50
2019-04-04T12:33:04.629Z,17.83
2019-04-04T12:35:34.607Z,15.80
2019-04-04T12:38:04.565Z,15.20
2019-04-04T12:40:34.511Z,14.00
2019-04-04T12:43:04.425Z,18.77
2019-04-04T12:45:34.289Z,16.97
2019-04-04T12:48:04.298Z,16.70
2019-04-04T12:50:34.243Z,15.90
2019-04-04T12:53:04.328Z,16.80
2019-04-04T12:55:34.208Z,15.17
2019-04-04T12:58:04.157Z,16.40
2019-04-04T13:00:34.069Z,16.30
2019-04-04T13:03:04.083Z,15.53
2019-04-04T13:05:34.006Z,13.43
2019-04-04T13:08:03.954Z,14.63
2019-04-04T13:10:33.816Z,15.43
2019-04-04T13:13:03.833Z,14.23
2019-04-04T13:15:33.766Z,14.60
2019-04-04T13:18:03.942Z,16.10
2019-04-04T13:20:33.800Z,14.60
2019-04-04T13:23:03.786Z,14.37
2019-04-04T13:25:33.820Z,13.43
2019-04-04T13:28:03.785Z,14.37
2019-04-04T13:30:33.661Z,15.80
2019-04-04T13:33:03.576Z,22.20
2019-04-04T13:35:33.525Z,19.73
2019-04-04T13:38:03.413Z,14.70
2019-04-04T13:40:44.720Z,25.97
2019-04-04T13:43:04.990Z,16.93
2019-04-04T13:45:34.980Z,15.20
2019-04-04T13:48:05.149Z,16.43
2019-04-04T13:50:35.034Z,18.50
2019-04-04T13:53:04.979Z,17.77
2019-04-04T13:55:34.940Z,16.23
2019-04-04T13:58:05.184Z,15.27
2019-04-04T14:00:35.137Z,17.60
2019-04-04T14:03:05.215Z,14.27
2019-04-04T14:05:35.164Z,16.20
2019-04-04T14:08:05.664Z,16.83
2019-04-04T14:10:35.836Z,15.57
2019-04-04T14:13:05.805Z,16.67
2019-04-04T14:15:35.791Z,15.40
2019-04-04T14:18:22.107Z,16.10
2019-04-04T14:21:03.410Z,17.30
2019-04-04T14:23:25.832Z,12.50
2019-04-04T14:25:55.765Z,17.10
2019-04-04T14:28:28.544Z,13.57
2019-04-04T14:30:58.145Z,15.53
2019-04-04T14:33:28.112Z,12.10
2019-04-04T14:35:58.054Z,15.50
2019-04-04T14:38:27.968Z,11.20
2019-04-04T14:41:10.240Z,11.03
2019-04-04T14:43:30.044Z,14.10
2019-04-04T14:46:00.422Z,12.20
2019-04-04T14:48:30.390Z,11.00
2019-04-04T14:51:00.376Z,13.90
2019-04-04T14:53:30.350Z,9.73
2019-04-04T14:56:00.306Z,12.23
2019-04-04T14:58:30.841Z,9.97
2019-04-04T15:01:01.110Z,12.03
2019-04-04T15:03:31.083Z,10.87
2019-04-04T15:06:01.054Z,10.17
2019-04-04T15:08:31.107Z,9.27
2019-04-04T15:11:01.078Z,7.43
2019-04-04T15:13:30.919Z,9.87
2019-04-04T15:16:32.306Z,10.03
2019-04-04T15:19:02.207Z,8.93
2019-04-04T15:21:32.170Z,10.33
2019-04-04T15:24:02.049Z,6.43
2019-04-04T15:26:32.281Z,8.50
2019-04-04T15:29:02.203Z,9.20
2019-04-04T15:31:32.193Z,10.00
2019-04-04T15:34:02.410Z,8.83
2019-04-04T15:36:32.368Z,7.67
2019-04-04T15:39:02.189Z,9.00
2019-04-04T15:41:37.274Z,7.73
2019-04-04T15:44:03.995Z,6.20
2019-04-04T15:46:34.004Z,6.57
2019-04-04T15:49:04.032Z,6.57
2019-04-04T15:51:33.960Z,7.90
2019-04-04T15:54:03.957Z,7.13
2019-04-04T15:56:34.031Z,5.73
2019-04-04T15:59:04.123Z,8.10
2019-04-04T16:01:34.180Z,5.40
2019-04-04T16:04:04.238Z,6.03
2019-04-04T16:06:34.221Z,7.03
2019-04-04T16:09:06.276Z,4.27
2019-04-04T16:11:48.903Z,6.47
2019-04-04T16:14:08.613Z,5.50
2019-04-04T16:16:38.582Z,8.17
2019-04-04T16:19:08.430Z,7.00
2019-04-04T16:21:38.415Z,6.23
2019-04-04T16:24:08.317Z,6.30
2019-04-04T16:26:38.500Z,7.40
2019-04-04T16:29:08.398Z,4.17
2019-04-04T16:31:38.328Z,5.90
2019-04-04T16:34:08.262Z,7.33
2019-04-04T16:36:38.128Z,8.07
2019-04-04T16:39:09.169Z,5.30
2019-04-04T16:41:39.083Z,5.77
2019-04-04T16:44:08.988Z,6.43
2019-04-04T16:46:38.910Z,4.83
2019-04-04T16:49:08.791Z,5.47
2019-04-04T16:51:38.749Z,4.50
2019-04-04T16:54:08.668Z,2.93
2019-04-04T16:56:38.619Z,4.73
2019-04-04T16:59:08.584Z,3.63
2019-04-04T17:01:38.827Z,3.43
2019-04-04T17:04:08.772Z,3.53
2019-04-04T17:06:38.703Z,3.83
2019-04-04T17:09:09.545Z,2.93
2019-04-04T17:11:39.469Z,3.17
2019-04-04T17:14:13.140Z,4.03
2019-04-04T17:16:43.079Z,2.70
2019-04-04T17:19:13.120Z,3.87
2019-04-04T17:21:42.999Z,4.27
2019-04-04T17:24:14.176Z,3.70
2019-04-04T17:26:44.081Z,3.17
2019-04-04T17:29:14.097Z,2.73
2019-04-04T17:31:44.544Z,3.97
2019-04-04T17:34:14.788Z,3.03
2019-04-04T17:36:44.758Z,3.73
2019-04-04T17:39:14.732Z,4.27
2019-04-04T17:41:57.375Z,3.60
2019-04-04T17:44:27.742Z,3.60
2019-04-04T17:46:57.675Z,6.17
2019-04-04T17:49:27.598Z,3.73
2019-04-04T17:51:57.525Z,3.90
2019-04-04T17:54:28.010Z,4.17
2019-04-04T17:56:58.154Z,5.13
2019-04-04T17:59:30.226Z,4.33
2019-04-04T18:01:59.736Z,7.13
2019-04-04T18:04:29.736Z,5.40
2019-04-04T18:06:59.665Z,6.07
2019-04-04T18:09:32.110Z,5.53
2019-04-04T18:12:01.302Z,6.07
2019-04-04T18:14:31.223Z,5.80
2019-04-04T18:17:01.208Z,8.33
2019-04-04T18:19:31.137Z,6.73
2019-04-04T18:22:01.648Z,6.20
2019-04-04T18:24:31.711Z,7.00
2019-04-04T18:27:01.619Z,11.40
2019-04-04T18:29:31.546Z,9.20
2019-04-04T18:32:01.504Z,7.63
2019-04-04T18:34:31.462Z,7.47
2019-04-04T18:37:01.459Z,6.73
2019-04-04T18:39:31.414Z,6.17
2019-04-04T18:42:01.335Z,8.03
2019-04-04T18:44:33.766Z,5.10
2019-04-04T18:47:02.797Z,5.00
2019-04-04T18:49:33.127Z,4.97
2019-04-04T18:52:03.142Z,4.23
2019-04-04T18:54:33.083Z,4.83
2019-04-04T18:57:03.118Z,4.30
2019-04-04T18:59:33.047Z,6.33
2019-04-04T19:02:02.978Z,5.57
2019-04-04T19:04:32.948Z,5.17
2019-04-04T19:07:03.221Z,5.67
2019-04-04T19:09:34.619Z,4.53
2019-04-04T19:12:04.831Z,5.47
2019-04-04T19:14:34.758Z,5.67
2019-04-04T19:17:04.719Z,5.10
2019-04-04T19:19:34.649Z,4.20
2019-04-04T19:22:04.570Z,4.53
2019-04-04T19:24:34.798Z,5.10
2019-04-04T19:27:04.971Z,4.70
2019-04-04T19:29:35.214Z,5.10
2019-04-04T19:32:05.275Z,5.63
2019-04-04T19:34:35.200Z,4.40
2019-04-04T19:37:05.115Z,4.63
2019-04-04T19:39:35.048Z,5.17
2019-04-04T19:42:05.538Z,5.97
2019-04-04T19:44:35.736Z,5.33
2019-04-04T19:47:06.186Z,5.60
2019-04-04T19:49:36.053Z,5.47
2019-04-04T19:52:05.899Z,5.73
2019-04-04T19:54:36.007Z,5.93
2019-04-04T19:57:06.023Z,6.13
2019-04-04T19:59:35.966Z,5.50
2019-04-04T20:02:05.926Z,6.07
2019-04-04T20:04:35.900Z,5.30
2019-04-04T20:07:06.044Z,7.53
2019-04-04T20:09:36.246Z,6.40
2019-04-04T20:12:06.124Z,5.97
2019-04-04T20:14:36.094Z,5.50
2019-04-04T20:17:06.003Z,6.17
2019-04-04T20:19:44.226Z,6.37
2019-04-04T20:22:14.126Z,5.27
2019-04-04T20:24:44.434Z,6.70
2019-04-04T20:27:14.596Z,7.60
2019-04-04T20:29:50.131Z,6.83
2019-04-04T20:32:20.264Z,7.50
2019-04-04T20:34:51.418Z,7.63
2019-04-04T20:37:21.381Z,7.83
2019-04-04T20:39:51.357Z,8.33
2019-04-04T20:42:21.358Z,8.77
2019-04-04T20:44:57.693Z,8.87
2019-04-04T20:47:27.590Z,9.03
2019-04-04T20:49:57.501Z,8.17
2019-04-04T20:52:27.451Z,8.00
2019-04-04T20:54:57.413Z,8.97
2019-04-04T20:57:27.346Z,8.27
2019-04-04T20:59:58.158Z,9.83
2019-04-04T21:02:28.047Z,10.07
2019-04-04T21:05:01.479Z,10.63
2019-04-04T21:07:31.408Z,10.60
2019-04-04T21:10:09.125Z,10.77
2019-04-04T21:12:39.058Z,11.03
2019-04-04T21:15:09.413Z,9.40
2019-04-04T21:17:39.895Z,11.10
2019-04-04T21:20:16.062Z,10.07
2019-04-04T21:22:46.023Z,9.97
2019-04-04T21:25:16.072Z,10.50
2019-04-04T21:27:46.006Z,10.87
2019-04-04T21:30:16.464Z,9.37
2019-04-04T21:32:46.530Z,9.43
2019-04-04T21:35:16.577Z,9.80
2019-04-04T21:37:46.521Z,10.23
2019-04-04T21:40:16.479Z,9.17
2019-04-04T21:42:48.849Z,10.37
2019-04-04T21:45:18.767Z,10.47
2019-04-04T21:47:48.749Z,10.03
2019-04-04T21:50:18.672Z,9.60
2019-04-04T21:52:48.653Z,11.33
2019-04-04T21:55:18.863Z,11.07
2019-04-04T21:57:48.834Z,11.30
2019-04-04T22:00:19.633Z,9.97
2019-04-04T22:02:49.899Z,9.70
2019-04-04T22:05:19.879Z,10.40
2019-04-04T22:07:49.809Z,11.03
2019-04-04T22:10:19.779Z,12.50
2019-04-04T22:12:49.792Z,11.40
2019-04-04T22:15:19.674Z,9.83
2019-04-04T22:17:49.978Z,10.63
2019-04-04T22:20:19.904Z,11.07
2019-04-04T22:22:49.874Z,11.77
2019-04-04T22:25:19.815Z,11.57
2019-04-04T22:27:49.767Z,10.67
2019-04-04T22:30:19.744Z,11.00
2019-04-04T22:32:49.676Z,10.73
2019-04-04T22:35:19.896Z,11.60
2019-04-04T22:37:49.845Z,10.63
2019-04-04T22:40:19.793Z,12.83
2019-04-04T22:42:49.654Z,10.83
2019-04-04T22:45:19.592Z,11.43
2019-04-04T22:47:49.753Z,11.20
2019-04-04T22:50:19.664Z,10.27
2019-04-04T22:52:49.598Z,10.00
2019-04-04T22:55:19.539Z,10.23
2019-04-04T22:57:49.502Z,10.73
2019-04-04T23:00:19.536Z,11.27
2019-04-04T23:02:49.486Z,9.57
2019-04-04T23:05:19.442Z,8.67
2019-04-04T23:07:49.385Z,9.30
2019-04-04T23:10:19.305Z,8.40
2019-04-04T23:12:49.232Z,8.70
2019-04-04T23:15:19.157Z,8.83
2019-04-04T23:17:49.118Z,7.77
2019-04-04T23:20:19.103Z,7.80
2019-04-04T23:22:53.009Z,10.67
2019-04-04T23:25:20.618Z,8.93
2019-04-04T23:27:50.583Z,9.57
2019-04-04T23:30:20.495Z,8.27
2019-04-04T23:32:51.054Z,8.27
2019-04-04T23:35:20.968Z,9.53
2019-04-04T23:37:51.238Z,9.37
2019-04-04T23:40:21.465Z,12.13
2019-04-04T23:42:51.346Z,9.60
2019-04-04T23:45:21.183Z,9.30
2019-04-04T23:47:51.135Z,9.30
2019-04-04T23:50:21.118Z,8.47
2019-04-04T23:52:50.961Z,9.90
2019-04-04T23:55:20.850Z,7.80
2019-04-04T23:57:50.760Z,8.50
